sensor_id;sensor_type;location;lat;lon;timestamp;P1;durP1;ratioP1;P2;durP2;ratioP2
77571;SDS011;67214;47.454;18.966;2023-08-31T00:01:29;14.87;;;10.80;;
77571;SDS011;67214;47.454;18.966;2023-08-31T00:03:56;12.73;;;10.08;;
77571;SDS011;67214;47.454;18.966;2023-08-31T00:06:25;16.80;;;10.28;;
77571;SDS011;67214;47.454;18.966;2023-08-31T00:08:53;12.95;;;9.75;;
77571;SDS011;67214;47.454;18.966;2023-08-31T00:11:20;11.70;;;9.35;;
77571;SDS011;67214;47.454;18.966;2023-08-31T00:13:48;14.10;;;9.18;;
77571;SDS011;67214;47.454;18.966;2023-08-31T00:16:15;13.10;;;9.63;;
77571;SDS011;67214;47.454;18.966;2023-08-31T00:18:42;13.62;;;10.43;;
77571;SDS011;67214;47.454;18.966;2023-08-31T00:21:10;14.05;;;10.43;;
77571;SDS011;67214;47.454;18.966;2023-08-31T00:23:38;14.60;;;11.05;;
77571;SDS011;67214;47.454;18.966;2023-08-31T00:26:05;16.73;;;11.57;;
77571;SDS011;67214;47.454;18.966;2023-08-31T00:28:34;16.82;;;11.55;;
77571;SDS011;67214;47.454;18.966;2023-08-31T00:31:02;14.73;;;11.95;;
77571;SDS011;67214;47.454;18.966;2023-08-31T00:33:30;14.43;;;11.08;;
77571;SDS011;67214;47.454;18.966;2023-08-31T00:35:59;15.38;;;12.20;;
77571;SDS011;67214;47.454;18.966;2023-08-31T00:38:30;16.95;;;12.07;;
77571;SDS011;67214;47.454;18.966;2023-08-31T00:40:57;16.90;;;11.68;;
77571;SDS011;67214;47.454;18.966;2023-08-31T00:43:25;15.98;;;8.98;;
77571;SDS011;67214;47.454;18.966;2023-08-31T00:45:54;14.10;;;10.03;;
77571;SDS011;67214;47.454;18.966;2023-08-31T00:48:23;15.28;;;12.00;;
77571;SDS011;67214;47.454;18.966;2023-08-31T00:50:52;14.98;;;11.22;;
77571;SDS011;67214;47.454;18.966;2023-08-31T00:53:19;14.15;;;10.15;;
77571;SDS011;67214;47.454;18.966;2023-08-31T00:55:48;13.83;;;10.28;;
77571;SDS011;67214;47.454;18.966;2023-08-31T00:58:16;13.85;;;9.63;;
77571;SDS011;67214;47.454;18.966;2023-08-31T01:00:45;12.95;;;9.13;;
77571;SDS011;67214;47.454;18.966;2023-08-31T01:03:23;12.90;;;9.75;;
77571;SDS011;67214;47.454;18.966;2023-08-31T01:05:52;13.88;;;9.78;;
77571;SDS011;67214;47.454;18.966;2023-08-31T01:08:29;11.55;;;9.00;;
77571;SDS011;67214;47.454;18.966;2023-08-31T01:14:01;12.20;;;9.38;;
77571;SDS011;67214;47.454;18.966;2023-08-31T01:16:31;16.57;;;9.50;;
77571;SDS011;67214;47.454;18.966;2023-08-31T01:19:06;15.05;;;9.48;;
77571;SDS011;67214;47.454;18.966;2023-08-31T01:21:33;13.30;;;9.53;;
77571;SDS011;67214;47.454;18.966;2023-08-31T01:24:01;12.10;;;9.80;;
77571;SDS011;67214;47.454;18.966;2023-08-31T01:26:30;17.27;;;10.82;;
77571;SDS011;67214;47.454;18.966;2023-08-31T01:28:58;14.80;;;10.32;;
77571;SDS011;67214;47.454;18.966;2023-08-31T01:31:26;19.75;;;11.78;;
77571;SDS011;67214;47.454;18.966;2023-08-31T01:33:54;18.15;;;10.85;;
77571;SDS011;67214;47.454;18.966;2023-08-31T01:36:29;13.53;;;9.55;;
77571;SDS011;67214;47.454;18.966;2023-08-31T01:39:02;13.40;;;10.72;;
77571;SDS011;67214;47.454;18.966;2023-08-31T01:41:33;12.47;;;9.03;;
77571;SDS011;67214;47.454;18.966;2023-08-31T01:44:01;15.80;;;10.75;;
77571;SDS011;67214;47.454;18.966;2023-08-31T01:46:31;14.65;;;10.18;;
77571;SDS011;67214;47.454;18.966;2023-08-31T01:48:58;15.48;;;9.55;;
77571;SDS011;67214;47.454;18.966;2023-08-31T01:51:26;15.03;;;10.63;;
77571;SDS011;67214;47.454;18.966;2023-08-31T01:53:53;13.93;;;9.98;;
77571;SDS011;67214;47.454;18.966;2023-08-31T01:56:21;15.48;;;10.88;;
77571;SDS011;67214;47.454;18.966;2023-08-31T01:58:48;18.82;;;9.65;;
77571;SDS011;67214;47.454;18.966;2023-08-31T02:01:16;14.30;;;9.85;;
77571;SDS011;67214;47.454;18.966;2023-08-31T02:03:43;12.75;;;9.30;;
77571;SDS011;67214;47.454;18.966;2023-08-31T02:06:10;11.60;;;8.90;;
77571;SDS011;67214;47.454;18.966;2023-08-31T02:08:38;14.13;;;9.78;;
77571;SDS011;67214;47.454;18.966;2023-08-31T02:11:05;13.72;;;9.78;;
77571;SDS011;67214;47.454;18.966;2023-08-31T02:13:33;10.32;;;8.10;;
77571;SDS011;67214;47.454;18.966;2023-08-31T02:16:00;13.48;;;8.33;;
77571;SDS011;67214;47.454;18.966;2023-08-31T02:18:28;10.85;;;8.95;;
77571;SDS011;67214;47.454;18.966;2023-08-31T02:20:55;12.10;;;9.18;;
77571;SDS011;67214;47.454;18.966;2023-08-31T02:23:23;13.40;;;9.55;;
77571;SDS011;67214;47.454;18.966;2023-08-31T02:25:50;11.88;;;8.63;;
77571;SDS011;67214;47.454;18.966;2023-08-31T02:28:18;10.95;;;8.68;;
77571;SDS011;67214;47.454;18.966;2023-08-31T02:30:45;12.78;;;9.88;;
77571;SDS011;67214;47.454;18.966;2023-08-31T02:33:13;12.78;;;9.40;;
77571;SDS011;67214;47.454;18.966;2023-08-31T02:35:40;12.37;;;8.83;;
77571;SDS011;67214;47.454;18.966;2023-08-31T02:38:08;12.95;;;9.45;;
77571;SDS011;67214;47.454;18.966;2023-08-31T02:40:35;18.05;;;9.75;;
77571;SDS011;67214;47.454;18.966;2023-08-31T02:43:02;12.78;;;8.05;;
77571;SDS011;67214;47.454;18.966;2023-08-31T02:45:30;12.25;;;8.53;;
77571;SDS011;67214;47.454;18.966;2023-08-31T02:47:58;13.00;;;8.63;;
77571;SDS011;67214;47.454;18.966;2023-08-31T02:50:25;11.00;;;8.75;;
77571;SDS011;67214;47.454;18.966;2023-08-31T02:52:52;10.38;;;8.00;;
77571;SDS011;67214;47.454;18.966;2023-08-31T02:55:20;9.98;;;8.43;;
77571;SDS011;67214;47.454;18.966;2023-08-31T02:57:47;9.68;;;8.35;;
77571;SDS011;67214;47.454;18.966;2023-08-31T03:00:15;10.93;;;8.75;;
77571;SDS011;67214;47.454;18.966;2023-08-31T03:02:44;11.43;;;7.87;;
77571;SDS011;67214;47.454;18.966;2023-08-31T03:05:11;10.15;;;8.53;;
77571;SDS011;67214;47.454;18.966;2023-08-31T03:07:39;11.40;;;8.33;;
77571;SDS011;67214;47.454;18.966;2023-08-31T03:10:07;9.80;;;8.18;;
77571;SDS011;67214;47.454;18.966;2023-08-31T03:12:34;9.88;;;7.60;;
77571;SDS011;67214;47.454;18.966;2023-08-31T03:15:02;10.15;;;8.30;;
77571;SDS011;67214;47.454;18.966;2023-08-31T03:17:31;10.63;;;8.20;;
77571;SDS011;67214;47.454;18.966;2023-08-31T03:19:59;12.70;;;8.55;;
77571;SDS011;67214;47.454;18.966;2023-08-31T03:22:26;11.90;;;8.80;;
77571;SDS011;67214;47.454;18.966;2023-08-31T03:24:54;12.93;;;9.23;;
77571;SDS011;67214;47.454;18.966;2023-08-31T03:27:21;15.18;;;9.18;;
77571;SDS011;67214;47.454;18.966;2023-08-31T03:29:48;10.28;;;8.25;;
77571;SDS011;67214;47.454;18.966;2023-08-31T03:32:16;12.03;;;9.55;;
77571;SDS011;67214;47.454;18.966;2023-08-31T03:34:43;10.43;;;8.25;;
77571;SDS011;67214;47.454;18.966;2023-08-31T03:37:11;12.05;;;9.10;;
77571;SDS011;67214;47.454;18.966;2023-08-31T03:39:38;12.50;;;9.08;;
77571;SDS011;67214;47.454;18.966;2023-08-31T03:42:07;14.83;;;8.50;;
77571;SDS011;67214;47.454;18.966;2023-08-31T03:44:35;13.43;;;9.30;;
77571;SDS011;67214;47.454;18.966;2023-08-31T03:47:03;11.93;;;9.40;;
77571;SDS011;67214;47.454;18.966;2023-08-31T03:49:30;10.78;;;8.60;;
77571;SDS011;67214;47.454;18.966;2023-08-31T03:51:59;10.18;;;7.30;;
77571;SDS011;67214;47.454;18.966;2023-08-31T03:54:26;10.35;;;7.75;;
77571;SDS011;67214;47.454;18.966;2023-08-31T03:56:54;11.48;;;7.55;;
77571;SDS011;67214;47.454;18.966;2023-08-31T03:59:21;7.33;;;6.62;;
77571;SDS011;67214;47.454;18.966;2023-08-31T04:01:48;8.58;;;6.80;;
77571;SDS011;67214;47.454;18.966;2023-08-31T04:04:16;9.15;;;6.95;;
77571;SDS011;67214;47.454;18.966;2023-08-31T04:06:43;7.75;;;6.58;;
77571;SDS011;67214;47.454;18.966;2023-08-31T04:09:11;8.60;;;5.92;;
77571;SDS011;67214;47.454;18.966;2023-08-31T04:11:38;6.28;;;5.67;;
77571;SDS011;67214;47.454;18.966;2023-08-31T04:14:05;6.33;;;5.17;;
77571;SDS011;67214;47.454;18.966;2023-08-31T04:16:33;6.05;;;5.50;;
77571;SDS011;67214;47.454;18.966;2023-08-31T04:19:00;6.03;;;5.20;;
77571;SDS011;67214;47.454;18.966;2023-08-31T04:21:28;7.17;;;6.22;;
77571;SDS011;67214;47.454;18.966;2023-08-31T04:23:55;7.87;;;6.92;;
77571;SDS011;67214;47.454;18.966;2023-08-31T04:26:24;7.95;;;5.87;;
77571;SDS011;67214;47.454;18.966;2023-08-31T04:28:53;5.10;;;4.53;;
77571;SDS011;67214;47.454;18.966;2023-08-31T04:31:21;5.40;;;4.28;;
77571;SDS011;67214;47.454;18.966;2023-08-31T04:33:49;7.78;;;4.60;;
77571;SDS011;67214;47.454;18.966;2023-08-31T04:36:18;4.62;;;4.22;;
77571;SDS011;67214;47.454;18.966;2023-08-31T04:38:46;5.10;;;4.40;;
77571;SDS011;67214;47.454;18.966;2023-08-31T04:41:15;6.75;;;4.03;;
77571;SDS011;67214;47.454;18.966;2023-08-31T04:43:43;4.72;;;3.55;;
77571;SDS011;67214;47.454;18.966;2023-08-31T04:46:12;4.47;;;3.30;;
77571;SDS011;67214;47.454;18.966;2023-08-31T04:48:40;4.15;;;3.72;;
77571;SDS011;67214;47.454;18.966;2023-08-31T04:51:09;4.37;;;3.60;;
77571;SDS011;67214;47.454;18.966;2023-08-31T04:53:38;4.10;;;3.37;;
77571;SDS011;67214;47.454;18.966;2023-08-31T04:56:05;4.72;;;3.58;;
77571;SDS011;67214;47.454;18.966;2023-08-31T04:58:33;5.92;;;3.67;;
77571;SDS011;67214;47.454;18.966;2023-08-31T05:01:00;4.10;;;3.70;;
77571;SDS011;67214;47.454;18.966;2023-08-31T05:03:28;5.70;;;3.95;;
77571;SDS011;67214;47.454;18.966;2023-08-31T05:05:55;6.55;;;3.87;;
77571;SDS011;67214;47.454;18.966;2023-08-31T05:08:23;4.28;;;3.58;;
77571;SDS011;67214;47.454;18.966;2023-08-31T05:10:50;4.97;;;3.50;;
77571;SDS011;67214;47.454;18.966;2023-08-31T05:13:17;6.05;;;4.15;;
77571;SDS011;67214;47.454;18.966;2023-08-31T05:15:45;4.75;;;3.30;;
77571;SDS011;67214;47.454;18.966;2023-08-31T05:18:12;5.33;;;3.77;;
77571;SDS011;67214;47.454;18.966;2023-08-31T05:20:44;6.42;;;3.80;;
77571;SDS011;67214;47.454;18.966;2023-08-31T05:23:13;6.97;;;3.83;;
77571;SDS011;67214;47.454;18.966;2023-08-31T05:25:42;5.87;;;3.80;;
77571;SDS011;67214;47.454;18.966;2023-08-31T05:28:09;5.50;;;4.00;;
77571;SDS011;67214;47.454;18.966;2023-08-31T05:30:45;4.65;;;3.77;;
77571;SDS011;67214;47.454;18.966;2023-08-31T05:33:16;4.35;;;3.60;;
77571;SDS011;67214;47.454;18.966;2023-08-31T05:35:44;4.30;;;3.83;;
77571;SDS011;67214;47.454;18.966;2023-08-31T05:38:12;5.53;;;3.58;;
77571;SDS011;67214;47.454;18.966;2023-08-31T05:40:39;4.65;;;4.08;;
77571;SDS011;67214;47.454;18.966;2023-08-31T05:43:14;4.20;;;3.67;;
77571;SDS011;67214;47.454;18.966;2023-08-31T05:45:42;4.17;;;3.65;;
77571;SDS011;67214;47.454;18.966;2023-08-31T05:48:10;6.62;;;4.03;;
77571;SDS011;67214;47.454;18.966;2023-08-31T05:50:37;4.33;;;3.83;;
77571;SDS011;67214;47.454;18.966;2023-08-31T05:53:04;4.72;;;3.52;;
77571;SDS011;67214;47.454;18.966;2023-08-31T05:55:33;6.03;;;3.95;;
77571;SDS011;67214;47.454;18.966;2023-08-31T05:58:01;6.40;;;3.65;;
77571;SDS011;67214;47.454;18.966;2023-08-31T06:00:28;5.78;;;4.30;;
77571;SDS011;67214;47.454;18.966;2023-08-31T06:02:55;4.50;;;3.85;;
77571;SDS011;67214;47.454;18.966;2023-08-31T06:05:23;5.67;;;3.75;;
77571;SDS011;67214;47.454;18.966;2023-08-31T06:07:50;7.28;;;4.65;;
77571;SDS011;67214;47.454;18.966;2023-08-31T06:10:18;5.03;;;4.45;;
77571;SDS011;67214;47.454;18.966;2023-08-31T06:12:46;8.23;;;4.30;;
77571;SDS011;67214;47.454;18.966;2023-08-31T06:15:13;5.92;;;4.50;;
77571;SDS011;67214;47.454;18.966;2023-08-31T06:17:40;5.15;;;3.87;;
77571;SDS011;67214;47.454;18.966;2023-08-31T06:20:08;8.00;;;3.50;;
77571;SDS011;67214;47.454;18.966;2023-08-31T06:22:36;7.40;;;4.08;;
77571;SDS011;67214;47.454;18.966;2023-08-31T06:25:04;5.90;;;4.45;;
77571;SDS011;67214;47.454;18.966;2023-08-31T06:27:33;6.92;;;4.75;;
77571;SDS011;67214;47.454;18.966;2023-08-31T06:30:01;6.95;;;4.20;;
77571;SDS011;67214;47.454;18.966;2023-08-31T06:32:29;8.33;;;4.70;;
77571;SDS011;67214;47.454;18.966;2023-08-31T06:34:56;7.35;;;4.20;;
77571;SDS011;67214;47.454;18.966;2023-08-31T06:37:24;6.47;;;5.10;;
77571;SDS011;67214;47.454;18.966;2023-08-31T06:39:51;11.68;;;4.90;;
77571;SDS011;67214;47.454;18.966;2023-08-31T06:42:18;6.47;;;4.70;;
77571;SDS011;67214;47.454;18.966;2023-08-31T06:44:46;9.20;;;5.03;;
77571;SDS011;67214;47.454;18.966;2023-08-31T06:47:13;5.33;;;4.45;;
77571;SDS011;67214;47.454;18.966;2023-08-31T06:49:42;7.20;;;4.55;;
77571;SDS011;67214;47.454;18.966;2023-08-31T06:52:10;5.72;;;5.12;;
77571;SDS011;67214;47.454;18.966;2023-08-31T06:57:16;6.95;;;5.30;;
77571;SDS011;67214;47.454;18.966;2023-08-31T06:59:43;7.83;;;4.83;;
77571;SDS011;67214;47.454;18.966;2023-08-31T07:02:12;7.25;;;5.15;;
77571;SDS011;67214;47.454;18.966;2023-08-31T07:04:40;7.95;;;4.87;;
77571;SDS011;67214;47.454;18.966;2023-08-31T07:07:08;8.60;;;4.45;;
77571;SDS011;67214;47.454;18.966;2023-08-31T07:09:36;7.25;;;4.67;;
77571;SDS011;67214;47.454;18.966;2023-08-31T07:12:03;5.03;;;4.53;;
77571;SDS011;67214;47.454;18.966;2023-08-31T07:14:31;5.03;;;4.53;;
77571;SDS011;67214;47.454;18.966;2023-08-31T07:16:59;8.80;;;4.80;;
77571;SDS011;67214;47.454;18.966;2023-08-31T07:19:27;4.45;;;4.05;;
77571;SDS011;67214;47.454;18.966;2023-08-31T07:21:54;7.40;;;4.33;;
77571;SDS011;67214;47.454;18.966;2023-08-31T07:24:24;8.35;;;4.80;;
77571;SDS011;67214;47.454;18.966;2023-08-31T07:26:52;8.40;;;4.20;;
77571;SDS011;67214;47.454;18.966;2023-08-31T07:29:19;7.28;;;4.35;;
77571;SDS011;67214;47.454;18.966;2023-08-31T07:31:47;6.92;;;4.20;;
77571;SDS011;67214;47.454;18.966;2023-08-31T07:34:14;6.03;;;4.45;;
77571;SDS011;67214;47.454;18.966;2023-08-31T07:36:42;6.72;;;4.17;;
77571;SDS011;67214;47.454;18.966;2023-08-31T07:39:09;7.30;;;4.15;;
77571;SDS011;67214;47.454;18.966;2023-08-31T07:41:37;4.75;;;4.17;;
77571;SDS011;67214;47.454;18.966;2023-08-31T07:44:05;9.60;;;4.50;;
77571;SDS011;67214;47.454;18.966;2023-08-31T07:46:32;6.05;;;3.62;;
77571;SDS011;67214;47.454;18.966;2023-08-31T07:49:00;4.20;;;3.62;;
77571;SDS011;67214;47.454;18.966;2023-08-31T07:51:28;4.70;;;3.47;;
77571;SDS011;67214;47.454;18.966;2023-08-31T07:53:56;5.42;;;3.40;;
77571;SDS011;67214;47.454;18.966;2023-08-31T07:56:24;6.00;;;3.70;;
77571;SDS011;67214;47.454;18.966;2023-08-31T07:58:51;4.92;;;3.60;;
77571;SDS011;67214;47.454;18.966;2023-08-31T08:01:19;5.70;;;3.72;;
77571;SDS011;67214;47.454;18.966;2023-08-31T08:03:46;4.62;;;3.12;;
77571;SDS011;67214;47.454;18.966;2023-08-31T08:06:14;5.40;;;4.10;;
77571;SDS011;67214;47.454;18.966;2023-08-31T08:08:42;6.42;;;3.62;;
77571;SDS011;67214;47.454;18.966;2023-08-31T08:11:09;5.83;;;3.90;;
77571;SDS011;67214;47.454;18.966;2023-08-31T08:13:37;4.08;;;3.67;;
77571;SDS011;67214;47.454;18.966;2023-08-31T08:16:04;5.10;;;3.70;;
77571;SDS011;67214;47.454;18.966;2023-08-31T08:18:32;5.28;;;3.60;;
77571;SDS011;67214;47.454;18.966;2023-08-31T08:20:59;5.65;;;3.70;;
77571;SDS011;67214;47.454;18.966;2023-08-31T08:23:26;7.17;;;3.85;;
77571;SDS011;67214;47.454;18.966;2023-08-31T08:25:54;4.08;;;3.22;;
77571;SDS011;67214;47.454;18.966;2023-08-31T08:28:21;5.53;;;3.50;;
77571;SDS011;67214;47.454;18.966;2023-08-31T08:30:49;4.60;;;3.30;;
77571;SDS011;67214;47.454;18.966;2023-08-31T08:33:16;4.22;;;3.47;;
77571;SDS011;67214;47.454;18.966;2023-08-31T08:35:44;4.78;;;3.87;;
77571;SDS011;67214;47.454;18.966;2023-08-31T08:38:11;5.47;;;3.85;;
77571;SDS011;67214;47.454;18.966;2023-08-31T08:40:38;4.37;;;3.25;;
77571;SDS011;67214;47.454;18.966;2023-08-31T08:43:07;6.60;;;3.95;;
77571;SDS011;67214;47.454;18.966;2023-08-31T08:45:39;5.22;;;3.92;;
77571;SDS011;67214;47.454;18.966;2023-08-31T08:48:06;6.55;;;3.67;;
77571;SDS011;67214;47.454;18.966;2023-08-31T08:50:35;7.45;;;5.17;;
77571;SDS011;67214;47.454;18.966;2023-08-31T08:53:03;4.40;;;4.00;;
77571;SDS011;67214;47.454;18.966;2023-08-31T08:55:32;5.67;;;3.75;;
77571;SDS011;67214;47.454;18.966;2023-08-31T08:58:00;10.80;;;3.50;;
77571;SDS011;67214;47.454;18.966;2023-08-31T09:00:29;3.37;;;2.70;;
77571;SDS011;67214;47.454;18.966;2023-08-31T09:02:56;3.98;;;2.70;;
77571;SDS011;67214;47.454;18.966;2023-08-31T09:05:26;2.92;;;2.25;;
77571;SDS011;67214;47.454;18.966;2023-08-31T09:08:02;6.28;;;2.65;;
77571;SDS011;67214;47.454;18.966;2023-08-31T09:10:41;3.15;;;2.52;;
77571;SDS011;67214;47.454;18.966;2023-08-31T09:13:15;4.83;;;2.35;;
77571;SDS011;67214;47.454;18.966;2023-08-31T09:15:44;3.52;;;2.70;;
77571;SDS011;67214;47.454;18.966;2023-08-31T09:18:24;4.37;;;2.62;;
77571;SDS011;67214;47.454;18.966;2023-08-31T09:20:53;3.92;;;2.95;;
77571;SDS011;67214;47.454;18.966;2023-08-31T09:23:22;3.10;;;1.92;;
77571;SDS011;67214;47.454;18.966;2023-08-31T09:25:51;3.22;;;2.40;;
77571;SDS011;67214;47.454;18.966;2023-08-31T09:28:20;4.30;;;2.42;;
77571;SDS011;67214;47.454;18.966;2023-08-31T09:30:51;4.08;;;2.52;;
77571;SDS011;67214;47.454;18.966;2023-08-31T09:33:19;2.60;;;2.00;;
77571;SDS011;67214;47.454;18.966;2023-08-31T09:35:50;6.33;;;2.77;;
77571;SDS011;67214;47.454;18.966;2023-08-31T09:38:20;4.85;;;2.02;;
77571;SDS011;67214;47.454;18.966;2023-08-31T09:40:47;3.37;;;2.15;;
77571;SDS011;67214;47.454;18.966;2023-08-31T09:43:18;2.47;;;2.17;;
77571;SDS011;67214;47.454;18.966;2023-08-31T09:45:49;5.30;;;2.62;;
77571;SDS011;67214;47.454;18.966;2023-08-31T09:48:19;3.95;;;2.30;;
77571;SDS011;67214;47.454;18.966;2023-08-31T09:50:48;2.83;;;2.10;;
77571;SDS011;67214;47.454;18.966;2023-08-31T09:53:17;7.22;;;2.52;;
77571;SDS011;67214;47.454;18.966;2023-08-31T09:55:47;3.40;;;2.20;;
77571;SDS011;67214;47.454;18.966;2023-08-31T09:58:16;6.05;;;2.55;;
77571;SDS011;67214;47.454;18.966;2023-08-31T10:00:46;2.80;;;2.40;;
77571;SDS011;67214;47.454;18.966;2023-08-31T10:03:15;4.75;;;2.30;;
77571;SDS011;67214;47.454;18.966;2023-08-31T10:05:43;3.33;;;2.05;;
77571;SDS011;67214;47.454;18.966;2023-08-31T10:08:11;3.75;;;2.65;;
77571;SDS011;67214;47.454;18.966;2023-08-31T10:10:40;3.10;;;1.92;;
77571;SDS011;67214;47.454;18.966;2023-08-31T10:13:08;3.50;;;2.40;;
77571;SDS011;67214;47.454;18.966;2023-08-31T10:15:37;5.53;;;2.33;;
77571;SDS011;67214;47.454;18.966;2023-08-31T10:18:05;4.40;;;2.37;;
77571;SDS011;67214;47.454;18.966;2023-08-31T10:20:33;3.98;;;2.27;;
77571;SDS011;67214;47.454;18.966;2023-08-31T10:23:04;5.00;;;2.60;;
77571;SDS011;67214;47.454;18.966;2023-08-31T10:28:19;3.12;;;2.50;;
77571;SDS011;67214;47.454;18.966;2023-08-31T10:31:07;2.58;;;2.37;;
77571;SDS011;67214;47.454;18.966;2023-08-31T10:33:43;3.33;;;2.40;;
77571;SDS011;67214;47.454;18.966;2023-08-31T10:36:19;5.40;;;3.33;;
77571;SDS011;67214;47.454;18.966;2023-08-31T10:41:32;2.60;;;2.27;;
77571;SDS011;67214;47.454;18.966;2023-08-31T10:44:01;3.30;;;2.60;;
77571;SDS011;67214;47.454;18.966;2023-08-31T10:46:31;4.12;;;3.10;;
77571;SDS011;67214;47.454;18.966;2023-08-31T10:51:45;2.98;;;2.20;;
77571;SDS011;67214;47.454;18.966;2023-08-31T10:54:21;3.95;;;2.30;;
77571;SDS011;67214;47.454;18.966;2023-08-31T11:05:10;2.83;;;2.20;;
77571;SDS011;67214;47.454;18.966;2023-08-31T11:07:49;6.58;;;2.52;;
77571;SDS011;67214;47.454;18.966;2023-08-31T11:10:16;3.60;;;2.20;;
77571;SDS011;67214;47.454;18.966;2023-08-31T11:12:51;2.60;;;2.22;;
77571;SDS011;67214;47.454;18.966;2023-08-31T11:15:22;4.20;;;1.90;;
77571;SDS011;67214;47.454;18.966;2023-08-31T11:17:51;4.70;;;2.35;;
77571;SDS011;67214;47.454;18.966;2023-08-31T11:20:23;3.42;;;2.47;;
77571;SDS011;67214;47.454;18.966;2023-08-31T11:22:54;5.05;;;3.50;;
77571;SDS011;67214;47.454;18.966;2023-08-31T11:25:22;5.20;;;3.62;;
77571;SDS011;67214;47.454;18.966;2023-08-31T11:28:09;5.08;;;2.20;;
77571;SDS011;67214;47.454;18.966;2023-08-31T11:30:27;4.35;;;2.40;;
77571;SDS011;67214;47.454;18.966;2023-08-31T11:33:02;2.55;;;2.05;;
77571;SDS011;67214;47.454;18.966;2023-08-31T11:35:38;4.90;;;2.00;;
77571;SDS011;67214;47.454;18.966;2023-08-31T11:38:08;2.92;;;2.10;;
77571;SDS011;67214;47.454;18.966;2023-08-31T11:40:36;3.70;;;2.05;;
77571;SDS011;67214;47.454;18.966;2023-08-31T11:43:09;3.80;;;2.42;;
77571;SDS011;67214;47.454;18.966;2023-08-31T11:45:33;5.22;;;2.67;;
77571;SDS011;67214;47.454;18.966;2023-08-31T11:48:03;3.37;;;2.15;;
77571;SDS011;67214;47.454;18.966;2023-08-31T11:50:31;2.58;;;2.17;;
77571;SDS011;67214;47.454;18.966;2023-08-31T11:52:59;2.40;;;1.98;;
77571;SDS011;67214;47.454;18.966;2023-08-31T11:55:27;3.35;;;2.75;;
77571;SDS011;67214;47.454;18.966;2023-08-31T11:57:55;4.72;;;2.50;;
77571;SDS011;67214;47.454;18.966;2023-08-31T12:00:22;2.52;;;2.30;;
77571;SDS011;67214;47.454;18.966;2023-08-31T12:02:57;3.02;;;2.40;;
77571;SDS011;67214;47.454;18.966;2023-08-31T12:05:26;2.60;;;2.40;;
77571;SDS011;67214;47.454;18.966;2023-08-31T12:07:54;4.33;;;2.87;;
77571;SDS011;67214;47.454;18.966;2023-08-31T12:10:27;2.95;;;2.62;;
77571;SDS011;67214;47.454;18.966;2023-08-31T12:12:52;3.83;;;2.40;;
77571;SDS011;67214;47.454;18.966;2023-08-31T12:15:21;5.25;;;2.80;;
77571;SDS011;67214;47.454;18.966;2023-08-31T12:17:48;4.00;;;3.25;;
77571;SDS011;67214;47.454;18.966;2023-08-31T12:20:24;4.12;;;2.75;;
77571;SDS011;67214;47.454;18.966;2023-08-31T12:22:52;3.33;;;2.30;;
77571;SDS011;67214;47.454;18.966;2023-08-31T12:25:20;2.67;;;2.33;;
77571;SDS011;67214;47.454;18.966;2023-08-31T12:27:49;3.60;;;2.50;;
77571;SDS011;67214;47.454;18.966;2023-08-31T12:30:16;4.22;;;2.42;;
77571;SDS011;67214;47.454;18.966;2023-08-31T12:32:44;5.72;;;2.80;;
77571;SDS011;67214;47.454;18.966;2023-08-31T12:35:11;3.65;;;2.77;;
77571;SDS011;67214;47.454;18.966;2023-08-31T12:37:39;5.17;;;2.92;;
77571;SDS011;67214;47.454;18.966;2023-08-31T12:40:07;4.72;;;2.20;;
77571;SDS011;67214;47.454;18.966;2023-08-31T12:42:35;5.85;;;2.70;;
77571;SDS011;67214;47.454;18.966;2023-08-31T12:45:03;4.90;;;2.98;;
77571;SDS011;67214;47.454;18.966;2023-08-31T12:47:31;6.53;;;2.80;;
77571;SDS011;67214;47.454;18.966;2023-08-31T12:50:00;4.22;;;2.90;;
77571;SDS011;67214;47.454;18.966;2023-08-31T12:52:28;3.87;;;3.25;;
77571;SDS011;67214;47.454;18.966;2023-08-31T12:54:56;3.35;;;2.22;;
77571;SDS011;67214;47.454;18.966;2023-08-31T12:57:23;3.95;;;2.12;;
77571;SDS011;67214;47.454;18.966;2023-08-31T12:59:51;5.05;;;2.02;;
77571;SDS011;67214;47.454;18.966;2023-08-31T13:02:18;2.20;;;1.90;;
77571;SDS011;67214;47.454;18.966;2023-08-31T13:04:45;2.02;;;1.82;;
77571;SDS011;67214;47.454;18.966;2023-08-31T13:07:13;3.20;;;2.30;;
77571;SDS011;67214;47.454;18.966;2023-08-31T13:09:40;2.40;;;2.10;;
77571;SDS011;67214;47.454;18.966;2023-08-31T13:12:08;3.22;;;2.37;;
77571;SDS011;67214;47.454;18.966;2023-08-31T13:14:35;4.80;;;1.92;;
77571;SDS011;67214;47.454;18.966;2023-08-31T13:17:04;2.52;;;2.20;;
77571;SDS011;67214;47.454;18.966;2023-08-31T13:19:31;3.02;;;2.58;;
77571;SDS011;67214;47.454;18.966;2023-08-31T13:21:59;4.42;;;2.65;;
77571;SDS011;67214;47.454;18.966;2023-08-31T13:24:26;4.35;;;2.17;;
77571;SDS011;67214;47.454;18.966;2023-08-31T13:26:54;2.77;;;1.90;;
77571;SDS011;67214;47.454;18.966;2023-08-31T13:29:21;3.33;;;2.58;;
77571;SDS011;67214;47.454;18.966;2023-08-31T13:31:49;2.10;;;1.87;;
77571;SDS011;67214;47.454;18.966;2023-08-31T13:34:16;2.58;;;1.85;;
77571;SDS011;67214;47.454;18.966;2023-08-31T13:36:44;2.60;;;2.22;;
77571;SDS011;67214;47.454;18.966;2023-08-31T13:39:12;3.67;;;2.02;;
77571;SDS011;67214;47.454;18.966;2023-08-31T13:41:39;3.70;;;2.00;;
77571;SDS011;67214;47.454;18.966;2023-08-31T13:44:07;3.05;;;2.08;;
77571;SDS011;67214;47.454;18.966;2023-08-31T13:46:34;3.55;;;2.20;;
77571;SDS011;67214;47.454;18.966;2023-08-31T13:49:01;2.05;;;1.70;;
77571;SDS011;67214;47.454;18.966;2023-08-31T13:51:29;3.00;;;1.85;;
77571;SDS011;67214;47.454;18.966;2023-08-31T13:53:57;2.45;;;2.22;;
77571;SDS011;67214;47.454;18.966;2023-08-31T13:56:24;3.15;;;2.67;;
77571;SDS011;67214;47.454;18.966;2023-08-31T13:58:51;3.33;;;2.33;;
77571;SDS011;67214;47.454;18.966;2023-08-31T14:01:19;5.40;;;2.37;;
77571;SDS011;67214;47.454;18.966;2023-08-31T14:03:47;3.83;;;2.37;;
77571;SDS011;67214;47.454;18.966;2023-08-31T14:06:14;2.62;;;2.37;;
77571;SDS011;67214;47.454;18.966;2023-08-31T14:08:42;2.40;;;2.20;;
77571;SDS011;67214;47.454;18.966;2023-08-31T14:11:09;2.65;;;1.90;;
77571;SDS011;67214;47.454;18.966;2023-08-31T14:13:37;2.02;;;1.70;;
77571;SDS011;67214;47.454;18.966;2023-08-31T14:16:05;3.02;;;2.30;;
77571;SDS011;67214;47.454;18.966;2023-08-31T14:18:32;2.42;;;2.10;;
77571;SDS011;67214;47.454;18.966;2023-08-31T14:21:00;3.37;;;2.05;;
77571;SDS011;67214;47.454;18.966;2023-08-31T14:23:29;3.33;;;2.05;;
77571;SDS011;67214;47.454;18.966;2023-08-31T14:26:03;4.35;;;2.45;;
77571;SDS011;67214;47.454;18.966;2023-08-31T14:28:31;3.40;;;2.55;;
77571;SDS011;67214;47.454;18.966;2023-08-31T14:31:03;4.53;;;2.12;;
77571;SDS011;67214;47.454;18.966;2023-08-31T14:33:33;3.70;;;2.37;;
77571;SDS011;67214;47.454;18.966;2023-08-31T14:36:01;2.45;;;1.90;;
77571;SDS011;67214;47.454;18.966;2023-08-31T14:38:29;3.27;;;2.45;;
77571;SDS011;67214;47.454;18.966;2023-08-31T14:40:57;2.70;;;2.08;;
77571;SDS011;67214;47.454;18.966;2023-08-31T14:43:25;3.72;;;2.00;;
77571;SDS011;67214;47.454;18.966;2023-08-31T14:45:53;3.15;;;2.27;;
77571;SDS011;67214;47.454;18.966;2023-08-31T14:48:21;6.62;;;3.12;;
77571;SDS011;67214;47.454;18.966;2023-08-31T14:50:49;4.72;;;2.25;;
77571;SDS011;67214;47.454;18.966;2023-08-31T14:53:17;3.67;;;2.60;;
77571;SDS011;67214;47.454;18.966;2023-08-31T14:55:50;3.45;;;2.55;;
77571;SDS011;67214;47.454;18.966;2023-08-31T15:00:46;2.40;;;1.90;;
77571;SDS011;67214;47.454;18.966;2023-08-31T15:03:15;2.75;;;2.17;;